Time;durP1;ratioP1;P1;durP2;ratioP2;P2;SDS_P1;SDS_P2;PMS_P1;PMS_P2;Temp;Humidity;BMP_temperature;BMP_pressure;BME280_temperature;BME280_humidity;BME280_pressure;Samples;Min_cycle;Max_cycle;Signal;HPM_P1;HPM_P2
2023/03/09 00:01:51;;;;;;;154.98;35.67;;;;;;;0.97;100.00;98729.63;5091227;28;20028;-79
2023/03/09 00:04:17;;;;;;;140.25;34.17;;;;;;;0.98;100.00;98734.91;5091942;28;20039;-79
2023/03/09 00:06:43;;;;;;;170.52;39.10;;;;;;;1.04;100.00;98729.06;5088331;28;20074;-79
2023/03/09 00:09:09;;;;;;;139.02;31.77;;;;;;;1.06;100.00;98735.19;5114164;28;20088;-78
2023/03/09 00:11:35;;;;;;;146.65;34.97;;;;;;;1.08;100.00;98735.97;5094336;28;20063;-79
2023/03/09 00:14:00;;;;;;;145.00;32.95;;;;;;;1.01;100.00;98726.59;5114154;28;20103;-80
2023/03/09 00:16:28;;;;;;;157.50;34.78;;;;;;;0.99;100.00;98730.41;5090115;28;20040;-79
2023/03/09 00:18:56;;;;;;;149.43;36.13;;;;;;;0.97;100.00;98727.81;5094802;28;20466;-80
2023/03/09 00:21:34;;;;;;;151.32;34.03;;;;;;;0.97;100.00;98719.72;5095042;28;20069;-80
2023/03/09 00:24:14;;;;;;;162.30;37.13;;;;;;;1.02;100.00;98732.88;5074569;28;20042;-80
2023/03/09 00:26:43;;;;;;;144.35;34.13;;;;;;;0.98;100.00;98715.19;5087928;28;20042;-80
2023/03/09 00:29:11;;;;;;;136.70;34.47;;;;;;;0.97;100.00;98719.72;5109602;28;20031;-80
2023/03/09 00:31:37;;;;;;;161.70;37.70;;;;;;;0.99;100.00;98720.47;5110915;28;20039;-80
2023/03/09 00:34:03;;;;;;;159.63;36.17;;;;;;;1.03;100.00;98726.47;5105402;28;20462;-78
2023/03/09 00:36:28;;;;;;;153.90;37.83;;;;;;;1.03;100.00;98721.97;5104096;28;20134;-80
2023/03/09 00:38:55;;;;;;;150.95;37.50;;;;;;;0.98;100.00;98690.94;5095467;28;20054;-80
2023/03/09 00:41:23;;;;;;;166.90;37.42;;;;;;;0.99;100.00;98725.84;5077980;28;20039;-81
2023/03/09 00:43:49;;;;;;;154.82;36.08;;;;;;;1.09;100.00;98745.75;5095936;28;20032;-81
2023/03/09 00:46:15;;;;;;;161.95;38.17;;;;;;;1.18;100.00;98762.22;5113770;28;20031;-80
2023/03/09 00:48:41;;;;;;;197.38;39.38;;;;;;;1.09;100.00;98769.16;5112771;28;20062;-80
2023/03/09 00:51:08;;;;;;;161.05;37.83;;;;;;;1.07;100.00;98763.03;5088383;28;20084;-80
2023/03/09 00:53:34;;;;;;;137.55;34.00;;;;;;;1.06;100.00;98769.38;5075338;28;20036;-80
2023/03/09 00:56:06;;;;;;;151.50;38.58;;;;;;;1.01;100.00;98766.16;5078397;28;20026;-79
2023/03/09 00:58:31;;;;;;;163.77;37.97;;;;;;;1.01;100.00;98767.00;5094937;28;20038;-80
2023/03/09 01:00:57;;;;;;;161.80;34.95;;;;;;;1.00;100.00;98765.31;5093912;28;20032;-80
2023/03/09 01:03:22;;;;;;;180.55;41.38;;;;;;;1.09;100.00;98766.47;5076281;28;20539;-80
2023/03/09 01:05:49;;;;;;;177.30;40.00;;;;;;;1.12;100.00;98762.69;5078047;28;20489;-80
2023/03/09 01:08:14;;;;;;;176.75;40.08;;;;;;;1.17;100.00;98774.84;5093438;28;20101;-80
2023/03/09 01:10:41;;;;;;;165.20;40.88;;;;;;;1.14;100.00;98766.97;5078019;28;20043;-80
2023/03/09 01:13:07;;;;;;;167.73;40.05;;;;;;;1.15;100.00;98774.09;5072935;28;20444;-80
2023/03/09 01:15:33;;;;;;;185.07;38.65;;;;;;;1.16;100.00;98764.16;5094049;28;20028;-80
2023/03/09 01:17:58;;;;;;;180.90;39.47;;;;;;;1.20;100.00;98773.75;5095008;28;20042;-80
2023/03/09 01:20:23;;;;;;;162.63;37.17;;;;;;;1.32;100.00;98788.16;5109998;28;20078;-80
2023/03/09 01:22:52;;;;;;;182.02;43.80;;;;;;;1.24;100.00;98788.72;5091183;28;20044;-79
2023/03/09 01:25:17;;;;;;;154.00;37.30;;;;;;;1.29;100.00;98808.09;5074543;28;20027;-80
2023/03/09 01:27:42;;;;;;;183.18;42.38;;;;;;;1.25;100.00;98815.56;5097664;28;20035;-81
2023/03/09 01:30:10;;;;;;;186.10;39.70;;;;;;;1.23;100.00;98828.28;5116707;27;20031;-80
2023/03/09 01:32:35;;;;;;;182.40;41.00;;;;;;;1.26;100.00;98840.66;5115067;28;20039;-79
2023/03/09 01:35:05;;;;;;;173.25;40.10;;;;;;;1.14;100.00;98853.22;5078317;28;20198;-79
2023/03/09 01:37:31;;;;;;;180.73;41.00;;;;;;;1.09;100.00;98852.69;5097545;28;20466;-80
2023/03/09 01:39:56;;;;;;;192.82;40.40;;;;;;;1.16;100.00;98859.34;5115430;28;20046;-80
2023/03/09 01:42:22;;;;;;;170.73;40.00;;;;;;;1.18;100.00;98841.25;5096197;28;20047;-80
2023/03/09 01:45:09;;;;;;;177.65;39.67;;;;;;;1.19;100.00;98839.41;5081958;28;20035;-80
2023/03/09 01:47:34;;;;;;;162.80;37.38;;;;;;;1.16;100.00;98850.41;5095875;28;20472;-81
2023/03/09 01:50:02;;;;;;;192.88;39.63;;;;;;;1.08;100.00;98856.34;5077534;28;20044;-80
2023/03/09 01:52:31;;;;;;;198.10;42.92;;;;;;;1.13;100.00;98864.09;5090700;28;20109;-80
2023/03/09 01:55:17;;;;;;;178.32;39.17;;;;;;;1.02;100.00;98865.75;5098027;28;20123;-81
2023/03/09 01:57:56;;;;;;;174.05;41.13;;;;;;;1.11;100.00;98880.38;5097100;28;20070;-79
2023/03/09 02:00:24;;;;;;;157.25;36.13;;;;;;;1.26;100.00;98890.06;5116658;27;20019;-79
2023/03/09 02:03:12;;;;;;;190.82;42.13;;;;;;;1.02;100.00;98875.69;5095500;28;20532;-80
2023/03/09 02:05:51;;;;;;;225.75;40.00;;;;;;;1.05;100.00;98870.03;5114857;28;20047;-79
2023/03/09 02:08:20;;;;;;;189.23;39.50;;;;;;;1.13;100.00;98882.97;5110172;28;20078;-80
2023/03/09 02:10:51;;;;;;;172.25;37.88;;;;;;;1.14;100.00;98876.63;5093809;28;20062;-80
2023/03/09 02:13:21;;;;;;;195.02;39.72;;;;;;;1.01;100.00;98890.97;5079111;28;20080;-80
2023/03/09 02:15:48;;;;;;;209.43;42.45;;;;;;;1.06;100.00;98896.88;5115659;28;20030;-80
2023/03/09 02:18:13;;;;;;;222.40;42.63;;;;;;;0.97;100.00;98897.56;5061210;28;20035;-81
2023/03/09 02:21:07;;;;;;;193.35;43.50;;;;;;;1.05;100.00;98910.47;5097697;28;20050;-80
2023/03/09 02:23:43;;;;;;;185.88;39.28;;;;;;;1.10;100.00;98916.41;5092780;28;20071;-80
2023/03/09 02:26:18;;;;;;;197.60;40.33;;;;;;;1.03;100.00;98916.00;5113536;28;20042;-79
2023/03/09 02:28:44;;;;;;;196.25;40.55;;;;;;;1.11;100.00;98920.81;5074482;28;20081;-79
2023/03/09 02:31:13;;;;;;;205.60;42.00;;;;;;;1.10;100.00;98911.88;5096499;28;20031;-78
2023/03/09 02:33:38;;;;;;;213.65;45.60;;;;;;;1.16;100.00;98909.69;5095643;28;20038;-80
2023/03/09 02:36:04;;;;;;;213.13;41.40;;;;;;;1.08;100.00;98904.84;5117145;28;20039;-80
2023/03/09 02:38:29;;;;;;;214.73;41.25;;;;;;;1.12;100.00;98895.59;5059135;28;20448;-81
2023/03/09 02:40:58;;;;;;;208.55;39.55;;;;;;;1.10;100.00;98895.69;5106534;28;20043;-80
2023/03/09 02:43:28;;;;;;;201.07;40.47;;;;;;;1.18;100.00;98902.34;5094538;28;20085;-80
2023/03/09 02:45:54;;;;;;;254.45;43.05;;;;;;;1.06;100.00;98910.34;5085313;28;20031;-79
2023/03/09 02:48:22;;;;;;;219.80;42.83;;;;;;;1.23;100.00;98910.97;5097728;28;20043;-81
2023/03/09 02:50:48;;;;;;;215.35;43.35;;;;;;;1.13;100.00;98918.84;5072562;28;20028;-80
2023/03/09 02:53:13;;;;;;;195.40;41.83;;;;;;;1.02;100.00;98930.41;5087867;28;20043;-80
2023/03/09 02:55:38;;;;;;;218.07;42.20;;;;;;;1.02;100.00;98929.56;5111128;28;20040;-80
2023/03/09 02:58:04;;;;;;;243.25;44.70;;;;;;;1.04;100.00;98933.00;5079294;28;20115;-80
2023/03/09 03:00:29;;;;;;;244.10;43.10;;;;;;;1.07;100.00;98933.66;5096824;28;20035;-81
2023/03/09 03:02:55;;;;;;;231.65;43.60;;;;;;;1.15;100.00;98929.53;5095501;28;20039;-79
2023/03/09 03:05:21;;;;;;;222.45;44.17;;;;;;;1.16;100.00;98942.91;5115366;28;20055;-79
2023/03/09 03:07:46;;;;;;;230.20;41.20;;;;;;;1.18;100.00;98935.59;5096199;28;20044;-80
2023/03/09 03:10:14;;;;;;;242.32;45.95;;;;;;;1.15;100.00;98943.88;5111453;28;20116;-81
2023/03/09 03:12:39;;;;;;;211.48;42.65;;;;;;;1.18;100.00;98948.19;5078718;28;20039;-80
2023/03/09 03:15:06;;;;;;;268.25;46.20;;;;;;;1.12;100.00;98948.63;5096687;28;20088;-80
2023/03/09 03:17:32;;;;;;;237.45;47.17;;;;;;;1.17;100.00;98955.41;5115246;28;20036;-80
2023/03/09 03:19:58;;;;;;;225.63;45.50;;;;;;;1.20;100.00;98959.75;5114460;28;20047;-81
2023/03/09 03:22:23;;;;;;;241.57;46.85;;;;;;;1.21;100.00;98942.56;5077893;28;20036;-80
2023/03/09 03:24:49;;;;;;;226.80;44.35;;;;;;;1.23;100.00;98944.19;5057902;28;20038;-81
2023/03/09 03:27:15;;;;;;;234.43;44.80;;;;;;;1.16;100.00;98942.03;5094939;28;20125;-81
2023/03/09 03:29:40;;;;;;;248.63;44.50;;;;;;;1.21;100.00;98935.34;5113714;28;20031;-80
2023/03/09 03:32:06;;;;;;;251.13;47.85;;;;;;;1.24;100.00;98956.69;5075997;28;20036;-80
2023/03/09 03:34:32;;;;;;;231.88;43.88;;;;;;;1.26;100.00;98964.66;5091950;28;20042;-80
2023/03/09 03:36:57;;;;;;;299.42;47.95;;;;;;;1.23;100.00;98968.47;5060125;28;20141;-80
2023/03/09 03:39:23;;;;;;;225.18;44.17;;;;;;;1.44;100.00;98976.84;5075939;28;20028;-80
2023/03/09 03:41:48;;;;;;;238.30;49.25;;;;;;;1.32;100.00;98980.41;5113192;27;20496;-80
2023/03/09 03:44:14;;;;;;;274.95;46.17;;;;;;;1.21;100.00;98989.25;5089809;28;20039;-80
2023/03/09 03:46:39;;;;;;;272.42;48.78;;;;;;;1.19;100.00;98993.03;5095337;28;20062;-80
2023/03/09 03:49:05;;;;;;;259.45;48.95;;;;;;;1.21;100.00;98993.78;5094602;28;20126;-80
2023/03/09 03:51:30;;;;;;;331.45;49.80;;;;;;;1.19;100.00;99007.38;5082416;28;20036;-79
2023/03/09 03:53:56;;;;;;;289.48;52.28;;;;;;;1.24;100.00;99002.50;5071892;28;20040;-79
2023/03/09 03:56:21;;;;;;;262.40;48.53;;;;;;;1.13;100.00;99009.63;5068802;28;20039;-80
2023/03/09 03:58:47;;;;;;;304.63;49.78;;;;;;;1.13;100.00;99013.19;5071039;28;20128;-81
2023/03/09 04:01:12;;;;;;;278.23;49.65;;;;;;;1.05;100.00;99012.84;5085529;28;20471;-80
2023/03/09 04:03:38;;;;;;;271.75;48.28;;;;;;;1.28;100.00;99016.66;5074857;28;20080;-80
2023/03/09 04:06:03;;;;;;;295.73;51.13;;;;;;;1.10;100.00;99014.28;5113655;28;20090;-81
2023/03/09 04:08:30;;;;;;;304.17;50.17;;;;;;;1.09;100.00;99022.47;5108870;28;20060;-80
2023/03/09 04:10:56;;;;;;;300.95;49.80;;;;;;;1.19;100.00;99022.69;5095703;28;20106;-80
2023/03/09 04:13:21;;;;;;;257.92;48.20;;;;;;;1.13;100.00;99023.97;5094339;28;20131;-79
2023/03/09 04:15:47;;;;;;;283.70;49.33;;;;;;;1.15;100.00;99030.13;5094525;28;20085;-80
2023/03/09 04:18:13;;;;;;;307.05;51.40;;;;;;;1.10;100.00;99026.91;5096053;28;20047;-80
2023/03/09 04:20:39;;;;;;;271.95;50.47;;;;;;;1.21;100.00;99023.44;5112461;28;20382;-80
2023/03/09 04:23:04;;;;;;;310.33;53.67;;;;;;;1.13;100.00;99023.09;5065512;28;20093;-80
2023/03/09 04:25:30;;;;;;;274.90;51.63;;;;;;;1.15;100.00;99024.75;5110165;28;20409;-80
2023/03/09 04:27:56;;;;;;;323.08;56.03;;;;;;;1.14;100.00;99041.03;5093581;28;20085;-79
2023/03/09 04:30:23;;;;;;;278.67;51.75;;;;;;;1.15;100.00;99038.22;5094061;28;20398;-78
2023/03/09 04:32:48;;;;;;;285.98;51.33;;;;;;;1.19;100.00;99034.31;5111529;28;20102;-80
2023/03/09 04:35:14;;;;;;;310.58;53.83;;;;;;;1.19;100.00;99046.94;5075154;28;20068;-81
2023/03/09 04:37:40;;;;;;;262.80;47.80;;;;;;;1.20;100.00;99038.75;5103849;28;20036;-80
2023/03/09 04:40:06;;;;;;;318.35;49.42;;;;;;;1.16;100.00;99055.25;5113659;28;20481;-80
2023/03/09 04:42:32;;;;;;;316.90;50.90;;;;;;;1.22;100.00;99052.13;5060758;28;20035;-80
2023/03/09 04:44:57;;;;;;;317.13;50.45;;;;;;;1.13;100.00;99067.09;5087457;28;20045;-80
2023/03/09 04:47:23;;;;;;;319.60;52.70;;;;;;;1.17;100.00;99071.31;5076760;28;20074;-81
2023/03/09 04:49:49;;;;;;;296.85;52.05;;;;;;;1.17;100.00;99070.47;5075414;28;20413;-80
2023/03/09 04:52:15;;;;;;;288.02;52.33;;;;;;;1.28;100.00;99081.34;5059223;28;20118;-80
2023/03/09 04:54:40;;;;;;;297.05;53.33;;;;;;;1.10;100.00;99070.03;5083301;28;20024;-80
2023/03/09 04:57:06;;;;;;;279.55;49.30;;;;;;;1.18;100.00;99075.75;5060656;28;20028;-79
2023/03/09 04:59:32;;;;;;;278.08;51.08;;;;;;;1.21;100.00;99080.03;5052235;28;20032;-80
2023/03/09 05:01:57;;;;;;;283.80;50.70;;;;;;;1.29;100.00;99083.06;5058513;28;20040;-80
2023/03/09 05:04:23;;;;;;;291.85;54.75;;;;;;;1.23;100.00;99094.25;5093997;28;20035;-80
2023/03/09 05:06:48;;;;;;;280.17;53.67;;;;;;;1.20;100.00;99089.13;5062168;28;20395;-80
2023/03/09 05:09:14;;;;;;;309.60;56.38;;;;;;;1.16;100.00;99090.28;5059511;28;20398;-79
2023/03/09 05:11:39;;;;;;;325.33;54.45;;;;;;;1.15;100.00;99099.31;5051517;28;20036;-80
2023/03/09 05:14:05;;;;;;;306.17;56.67;;;;;;;1.21;100.00;99112.38;5111889;28;20054;-80
2023/03/09 05:16:30;;;;;;;316.38;51.03;;;;;;;1.23;100.00;99113.13;5102730;28;20039;-79
2023/03/09 05:18:56;;;;;;;342.95;58.90;;;;;;;1.24;100.00;99114.88;5074592;28;20054;-79
2023/03/09 05:21:22;;;;;;;308.65;51.33;;;;;;;1.27;100.00;99115.53;5077331;28;20112;-80
2023/03/09 05:23:47;;;;;;;285.40;52.90;;;;;;;1.23;100.00;99111.31;5057604;28;20036;-80
2023/03/09 05:26:13;;;;;;;297.98;55.58;;;;;;;1.18;100.00;99123.38;5091651;28;20041;-79
2023/03/09 05:28:40;;;;;;;330.90;52.38;;;;;;;1.37;100.00;99128.38;5111065;28;20123;-79
2023/03/09 05:31:13;;;;;;;280.15;53.28;;;;;;;1.32;100.00;99128.69;5070875;28;20122;-80
2023/03/09 05:33:40;;;;;;;;;;;;;;;1.26;100.00;99135.38;5086994;28;20486;-79
2023/03/09 05:36:24;;;;;;;268.38;53.15;;;;;;;1.20;100.00;99143.03;5107046;28;19915;-78
2023/03/09 05:38:51;;;;;;;346.95;56.95;;;;;;;1.21;100.00;99150.97;5091436;28;20023;-79
2023/03/09 05:41:17;;;;;;;357.15;56.65;;;;;;;1.29;100.00;99154.00;5093850;28;20057;-79
2023/03/09 05:43:43;;;;;;;306.77;51.92;;;;;;;1.18;100.00;99153.91;5093686;28;20031;-79
2023/03/09 05:46:15;;;;;;;315.10;53.40;;;;;;;1.24;100.00;99149.91;5090658;28;20043;-78
2023/03/09 05:48:42;;;;;;;298.50;54.60;;;;;;;1.23;100.00;99159.84;5090143;28;20035;-79
2023/03/09 05:51:08;;;;;;;354.20;58.70;;;;;;;1.16;100.00;99150.44;5063786;28;20027;-80
2023/03/09 05:53:34;;;;;;;332.33;55.03;;;;;;;1.16;100.00;99158.50;5092499;28;20487;-77
2023/03/09 05:56:00;;;;;;;330.13;52.65;;;;;;;1.19;100.00;99150.22;5106956;28;20035;-78
2023/03/09 05:58:26;;;;;;;348.27;59.78;;;;;;;1.11;100.00;99139.09;5084303;28;20051;-79
2023/03/09 06:00:52;;;;;;;335.95;57.25;;;;;;;1.14;100.00;99141.59;5083596;28;20047;-80
2023/03/09 06:03:20;;;;;;;339.08;59.35;;;;;;;1.17;100.00;99154.88;5074974;28;20040;-79
2023/03/09 06:05:47;;;;;;;357.80;52.63;;;;;;;1.14;100.00;99154.22;5071408;28;20023;-79
2023/03/09 06:08:14;;;;;;;345.83;57.53;;;;;;;1.17;100.00;99157.56;5096784;28;20056;-79
2023/03/09 06:10:40;;;;;;;360.65;57.88;;;;;;;1.24;100.00;99155.31;5071789;28;20115;-78
2023/03/09 06:13:05;;;;;;;349.83;56.60;;;;;;;1.19;100.00;99152.91;5077418;28;20093;-79
2023/03/09 06:15:31;;;;;;;383.27;59.33;;;;;;;1.18;100.00;99142.25;5092577;28;20036;-79
2023/03/09 06:17:57;;;;;;;348.98;59.38;;;;;;;1.31;100.00;99148.50;5069900;28;20040;-79
2023/03/09 06:20:22;;;;;;;344.95;59.22;;;;;;;1.28;100.00;99155.00;5059648;28;20035;-79
2023/03/09 06:22:47;;;;;;;361.85;56.97;;;;;;;1.36;100.00;99169.78;5052446;28;20394;-80
2023/03/09 06:25:13;;;;;;;370.23;56.63;;;;;;;1.25;100.00;99159.75;5076186;28;20097;-81
2023/03/09 06:27:39;;;;;;;358.35;60.97;;;;;;;1.32;100.00;99166.44;5075403;28;20040;-80
2023/03/09 06:30:05;;;;;;;361.85;59.38;;;;;;;1.41;100.00;99179.28;5041068;28;20036;-80
2023/03/09 06:32:32;;;;;;;396.15;59.00;;;;;;;1.43;100.00;99193.53;5060206;28;20089;-80
2023/03/09 06:34:58;;;;;;;364.10;56.45;;;;;;;1.47;100.00;99194.19;5093619;28;20166;-80
2023/03/09 06:37:23;;;;;;;409.83;61.45;;;;;;;1.42;100.00;99189.09;5081731;28;20676;-78
2023/03/09 06:39:52;;;;;;;402.73;62.08;;;;;;;1.58;100.00;99201.53;5038641;28;20534;-79
2023/03/09 06:42:17;;;;;;;390.08;59.22;;;;;;;1.61;100.00;99198.63;5059393;28;20028;-80
2023/03/09 06:44:44;;;;;;;381.13;59.25;;;;;;;1.55;100.00;99196.34;5041184;28;20166;-80
2023/03/09 06:47:10;;;;;;;385.80;55.83;;;;;;;1.64;100.00;99199.28;5075831;28;20051;-80
2023/03/09 06:49:36;;;;;;;389.05;54.67;;;;;;;1.64;100.00;99201.97;5091857;28;20043;-80
2023/03/09 06:52:01;;;;;;;382.50;60.83;;;;;;;1.67;100.00;99211.69;5061601;28;20032;-81
2023/03/09 06:54:26;;;;;;;455.58;59.85;;;;;;;1.67;100.00;99213.53;5075643;28;20483;-81
2023/03/09 06:56:52;;;;;;;378.77;64.10;;;;;;;1.75;100.00;99225.50;5054033;28;20063;-80
2023/03/09 06:59:18;;;;;;;409.92;62.33;;;;;;;1.64;100.00;99222.66;5090215;28;20414;-82
2023/03/09 07:01:44;;;;;;;419.33;58.15;;;;;;;1.70;100.00;99240.28;5089750;28;20093;-79
2023/03/09 07:04:10;;;;;;;450.63;62.15;;;;;;;1.68;100.00;99240.38;5091007;28;20437;-80
2023/03/09 07:06:36;;;;;;;372.45;59.60;;;;;;;1.55;100.00;99240.38;5039685;28;20373;-79
2023/03/09 07:09:03;;;;;;;403.73;64.38;;;;;;;1.64;100.00;99249.66;5065866;28;20056;-79
2023/03/09 07:11:30;;;;;;;443.63;60.30;;;;;;;1.65;100.00;99257.63;5047506;28;20071;-80
2023/03/09 07:13:55;;;;;;;370.58;59.22;;;;;;;1.71;100.00;99260.91;5092055;28;20048;-80
2023/03/09 07:16:22;;;;;;;356.98;59.35;;;;;;;1.74;100.00;99269.66;5067269;28;20085;-79
2023/03/09 07:18:48;;;;;;;440.50;59.33;;;;;;;1.63;100.00;99277.63;5095309;28;20028;-79
2023/03/09 07:21:14;;;;;;;396.13;61.80;;;;;;;1.53;100.00;99280.06;5072049;28;20036;-78
2023/03/09 07:23:39;;;;;;;355.85;59.53;;;;;;;1.68;100.00;99288.94;5091089;28;20550;-79
2023/03/09 07:26:05;;;;;;;360.13;58.15;;;;;;;1.57;100.00;99292.34;5070623;28;20036;-79
2023/03/09 07:28:31;;;;;;;401.75;58.47;;;;;;;1.61;100.00;99311.94;5053446;28;20043;-79
2023/03/09 07:30:56;;;;;;;390.30;60.95;;;;;;;1.57;100.00;99299.59;5075432;28;20491;-79
2023/03/09 07:33:22;;;;;;;389.98;58.92;;;;;;;1.65;100.00;99294.53;5042774;28;20093;-80
2023/03/09 07:35:48;;;;;;;363.23;58.67;;;;;;;1.57;100.00;99297.75;5054251;28;20093;-78
2023/03/09 07:38:13;;;;;;;424.85;58.42;;;;;;;1.71;100.00;99301.38;5070027;28;20044;-78
2023/03/09 07:40:38;;;;;;;333.60;54.38;;;;;;;1.73;100.00;99302.13;5043937;28;20069;-79
2023/03/09 07:43:04;;;;;;;368.63;58.67;;;;;;;1.67;100.00;99324.97;5025332;28;20028;-80
2023/03/09 07:45:30;;;;;;;383.83;58.20;;;;;;;1.69;100.00;99332.97;5059605;28;20494;-79
2023/03/09 07:47:55;;;;;;;348.00;58.33;;;;;;;1.59;100.00;99333.59;5076843;28;20039;-79
2023/03/09 07:50:21;;;;;;;389.92;59.40;;;;;;;1.60;100.00;99345.25;5043153;28;20055;-79
2023/03/09 07:52:47;;;;;;;460.67;61.70;;;;;;;1.67;100.00;99351.09;5076679;28;20491;-80
2023/03/09 07:55:13;;;;;;;399.65;59.53;;;;;;;1.70;100.00;99356.28;5094664;28;20040;-78
2023/03/09 07:57:39;;;;;;;352.73;55.40;;;;;;;1.67;100.00;99359.19;5073831;28;20467;-79
2023/03/09 08:00:11;;;;;;;357.92;55.65;;;;;;;1.74;100.00;99364.09;5075520;28;20044;-79
2023/03/09 08:02:40;;;;;;;387.80;57.87;;;;;;;1.60;100.00;99361.44;5029597;28;20036;-79
2023/03/09 08:05:08;;;;;;;384.02;59.15;;;;;;;1.72;100.00;99362.44;5074955;28;20294;-79
2023/03/09 08:07:34;;;;;;;412.15;60.65;;;;;;;1.70;100.00;99359.84;5078404;28;20047;-80
2023/03/09 08:09:59;;;;;;;348.45;56.05;;;;;;;1.81;100.00;99367.22;5091348;28;20036;-81
2023/03/09 08:12:25;;;;;;;384.08;60.08;;;;;;;1.81;100.00;99359.13;5090548;28;20119;-81
2023/03/09 08:14:50;;;;;;;367.58;57.05;;;;;;;1.95;100.00;99364.47;5093489;28;20039;-81
2023/03/09 08:17:16;;;;;;;363.92;59.92;;;;;;;1.96;100.00;99382.38;5075141;28;20032;-81
2023/03/09 08:19:41;;;;;;;356.27;58.08;;;;;;;2.02;100.00;99373.88;5093495;28;20032;-80
2023/03/09 08:22:06;;;;;;;340.05;54.63;;;;;;;1.99;100.00;99384.88;5094041;28;20399;-81
2023/03/09 08:24:32;;;;;;;385.77;61.33;;;;;;;1.88;100.00;99386.56;5075459;28;20039;-80
2023/03/09 08:26:58;;;;;;;338.55;58.08;;;;;;;1.91;100.00;99384.53;5041563;28;20101;-81
2023/03/09 08:29:23;;;;;;;356.55;57.15;;;;;;;1.92;100.00;99383.56;5094351;28;20035;-81
2023/03/09 08:31:49;;;;;;;354.80;58.72;;;;;;;1.97;100.00;99384.13;5093976;28;20036;-82
2023/03/09 08:34:17;;;;;;;304.80;55.55;;;;;;;1.99;100.00;99384.88;5076380;28;20028;-81
2023/03/09 08:36:43;;;;;;;326.95;54.38;;;;;;;1.92;100.00;99388.97;5091125;28;20044;-80
2023/03/09 08:39:08;;;;;;;314.30;55.53;;;;;;;1.97;100.00;99400.31;5091429;28;20173;-81
2023/03/09 08:41:34;;;;;;;318.52;56.08;;;;;;;2.07;100.00;99392.47;5092998;28;20068;-83
2023/03/09 08:44:00;;;;;;;340.25;56.60;;;;;;;2.16;100.00;99389.13;5076023;28;20033;-82
2023/03/09 08:46:25;;;;;;;291.92;49.60;;;;;;;2.26;100.00;99404.72;5092674;28;20032;-82
2023/03/09 08:48:51;;;;;;;341.50;55.13;;;;;;;2.26;100.00;99416.38;5076133;28;20035;-82
2023/03/09 08:51:17;;;;;;;341.25;54.50;;;;;;;2.14;100.00;99420.75;5076170;28;20028;-82
2023/03/09 08:53:43;;;;;;;310.50;54.13;;;;;;;1.98;100.00;99418.25;5094034;28;20043;-82
2023/03/09 08:56:10;;;;;;;306.08;53.05;;;;;;;2.06;100.00;99439.31;5092925;28;20103;-82
2023/03/09 08:58:37;;;;;;;329.83;57.75;;;;;;;2.05;100.00;99442.13;5075662;28;20034;-82
2023/03/09 09:01:05;;;;;;;322.67;53.70;;;;;;;2.23;100.00;99446.31;5057361;28;20109;-82
2023/03/09 09:03:31;;;;;;;327.60;54.78;;;;;;;2.22;100.00;99449.97;5093590;28;20051;-82
2023/03/09 09:06:03;;;;;;;295.67;51.22;;;;;;;2.31;100.00;99443.06;5076265;28;20081;-82
2023/03/09 09:08:28;;;;;;;340.83;56.13;;;;;;;2.43;100.00;99441.34;5061510;28;20529;-82
2023/03/09 09:10:56;;;;;;;307.67;53.85;;;;;;;2.42;100.00;99439.63;5056500;28;20032;-82
2023/03/09 09:13:22;;;;;;;310.15;54.28;;;;;;;2.36;100.00;99439.09;5059264;28;20031;-81
2023/03/09 09:15:55;;;;;;;347.88;57.65;;;;;;;2.13;100.00;99435.25;5059034;28;20024;-82
2023/03/09 09:18:21;;;;;;;316.77;55.53;;;;;;;2.30;100.00;99446.75;5075706;28;20074;-82
2023/03/09 09:20:47;;;;;;;293.00;52.80;;;;;;;2.42;100.00;99461.25;5075304;28;20024;-81
2023/03/09 09:23:13;;;;;;;299.40;56.55;;;;;;;2.42;100.00;99474.75;5089639;28;20094;-81
2023/03/09 09:25:39;;;;;;;294.55;52.85;;;;;;;2.27;100.00;99474.81;5055582;28;20426;-82
2023/03/09 09:28:05;;;;;;;292.45;53.58;;;;;;;2.31;100.00;99481.75;5055890;28;20036;-82
2023/03/09 09:30:32;;;;;;;334.30;59.15;;;;;;;2.33;100.00;99487.06;5038745;28;20491;-82
2023/03/09 09:32:59;;;;;;;314.50;56.40;;;;;;;2.44;100.00;99489.88;5038901;28;20060;-82
2023/03/09 09:35:27;;;;;;;354.42;54.38;;;;;;;2.35;100.00;99494.06;5066750;28;20526;-82
2023/03/09 09:37:54;;;;;;;288.95;54.60;;;;;;;2.49;100.00;99489.56;5057880;28;20040;-82
2023/03/09 09:40:20;;;;;;;326.15;57.47;;;;;;;2.38;100.00;99476.81;5075554;28;20479;-82
2023/03/09 09:42:47;;;;;;;312.88;55.70;;;;;;;2.54;100.00;99482.91;5093220;28;20024;-82
2023/03/09 09:45:27;;;;;;;301.67;55.00;;;;;;;2.49;100.00;99490.44;5075184;28;20452;-82
2023/03/09 09:47:54;;;;;;;293.40;51.60;;;;;;;2.56;100.00;99478.25;5065595;28;20408;-81
2023/03/09 09:50:21;;;;;;;297.95;51.92;;;;;;;2.73;100.00;99476.22;5097330;28;20093;-82
2023/03/09 09:53:07;;;;;;;314.85;60.13;;;;;;;2.67;100.00;99477.53;5062283;28;20031;-82
2023/03/09 09:55:37;;;;;;;302.90;55.60;;;;;;;2.67;100.00;99485.63;5097904;28;20080;-82
2023/03/09 09:58:09;;;;;;;321.75;56.60;;;;;;;2.67;100.00;99493.72;5062301;28;20127;-82
2023/03/09 10:00:40;;;;;;;289.42;53.28;;;;;;;2.52;100.00;99487.50;5062742;28;20498;-83
2023/03/09 10:03:19;;;;;;;309.75;56.75;;;;;;;2.45;100.00;99483.50;5078763;28;20038;-82
2023/03/09 10:06:36;;;;;;;294.52;56.13;;;;;;;2.45;100.00;99486.22;5079192;28;20035;-82
2023/03/09 10:09:29;;;;;;;283.98;53.15;;;;;;;2.50;100.00;99494.00;5110522;28;20375;-82
2023/03/09 10:12:02;;;;;;;293.70;54.00;;;;;;;2.72;100.00;99496.97;5099244;28;20038;-82
2023/03/09 10:15:04;;;;;;;301.98;58.97;;;;;;;2.66;100.00;99502.81;5098579;28;20066;-82
2023/03/09 10:17:38;;;;;;;307.00;56.50;;;;;;;2.63;100.00;99480.53;5116886;28;20474;-81
2023/03/09 10:20:19;;;;;;;292.20;56.40;;;;;;;2.65;100.00;99492.94;5105227;28;20436;-82
2023/03/09 10:22:49;;;;;;;293.85;55.75;;;;;;;2.72;100.00;99485.28;5099310;28;20024;-82
2023/03/09 10:25:21;;;;;;;308.48;55.70;;;;;;;2.82;100.00;99488.22;5099287;28;20027;-83
2023/03/09 10:28:02;;;;;;;305.15;60.08;;;;;;;2.78;100.00;99500.22;5115277;28;20509;-82
2023/03/09 10:30:39;;;;;;;310.50;59.92;;;;;;;2.86;100.00;99497.88;5116975;28;20030;-82
2023/03/09 10:33:30;;;;;;;302.52;58.45;;;;;;;2.83;100.00;99511.59;5083330;28;20046;-82
2023/03/09 10:36:05;;;;;;;298.67;51.30;;;;;;;2.78;100.00;99508.34;5099980;28;20031;-82
2023/03/09 10:38:33;;;;;;;296.05;58.08;;;;;;;2.97;100.00;99492.56;5100142;28;20023;-82
2023/03/09 10:40:58;;;;;;;298.95;54.83;;;;;;;2.98;100.00;99496.13;5117233;28;20024;-82
2023/03/09 10:43:36;;;;;;;288.90;56.67;;;;;;;3.00;100.00;99486.97;5116938;28;20038;-80
2023/03/09 10:46:15;;;;;;;269.00;54.85;;;;;;;3.35;100.00;99493.56;5099499;28;20092;-82
2023/03/09 10:48:43;;;;;;;294.70;56.35;;;;;;;3.25;100.00;99482.53;5098871;28;20434;-82
2023/03/09 10:51:25;;;;;;;255.05;52.72;;;;;;;3.45;100.00;99483.78;5099071;28;20024;-81
2023/03/09 10:53:52;;;;;;;278.05;52.53;;;;;;;3.53;100.00;99481.41;5117394;28;20503;-81
2023/03/09 10:56:28;;;;;;;266.92;54.90;;;;;;;3.92;100.00;99493.00;5099607;28;20551;-81
2023/03/09 10:59:03;;;;;;;315.05;63.38;;;;;;;3.67;100.00;99499.34;5078259;28;20474;-81
2023/03/09 11:01:29;;;;;;;263.23;56.53;;;;;;;3.74;100.00;99503.34;5121003;28;20023;-82
2023/03/09 11:03:55;;;;;;;277.38;53.75;;;;;;;3.41;100.00;99483.16;5126101;28;20505;-82
2023/03/09 11:06:29;;;;;;;273.38;52.40;;;;;;;3.50;100.00;99495.16;5109720;28;20043;-83
2023/03/09 11:09:07;;;;;;;266.83;55.03;;;;;;;3.99;100.00;99499.69;5100321;28;20518;-81
2023/03/09 11:11:32;;;;;;;293.27;55.95;;;;;;;3.74;100.00;99508.75;5087538;28;20028;-81
2023/03/09 11:13:58;;;;;;;263.35;55.08;;;;;;;3.64;100.00;99507.66;5088953;28;20039;-81